createdAt,value
2019-02-16T00:00:12.152Z,2.25
2019-02-16T00:01:12.130Z,2.30
2019-02-16T00:02:12.101Z,2.36
2019-02-16T00:03:12.082Z,2.24
2019-02-16T00:04:12.051Z,2.36
2019-02-16T00:05:12.031Z,2.23
2019-02-16T00:06:12.005Z,2.27
2019-02-16T00:07:11.987Z,2.28
2019-02-16T00:08:11.956Z,2.28
2019-02-16T00:09:11.928Z,2.27
2019-02-16T00:10:11.908Z,2.41
2019-02-16T00:11:11.890Z,2.38
2019-02-16T00:12:11.858Z,2.36
2019-02-16T00:13:11.839Z,2.31
2019-02-16T00:14:11.862Z,2.39
2019-02-16T00:15:11.790Z,2.53
2019-02-16T00:16:11.759Z,2.45
2019-02-16T00:17:11.741Z,2.48
2019-02-16T00:18:11.712Z,2.36
2019-02-16T00:19:11.687Z,2.42
2019-02-16T00:20:11.668Z,2.35
2019-02-16T00:21:11.650Z,2.41
2019-02-16T00:22:11.617Z,2.48
2019-02-16T00:23:11.592Z,2.43
2019-02-16T00:24:11.565Z,2.38
2019-02-16T00:25:11.547Z,2.43
2019-02-16T00:26:11.519Z,2.53
2019-02-16T00:27:11.495Z,2.41
2019-02-16T00:28:11.477Z,2.41
2019-02-16T00:29:11.443Z,2.41
2019-02-16T00:30:11.422Z,2.35
2019-02-16T00:31:11.397Z,2.35
2019-02-16T00:32:11.374Z,2.30
2019-02-16T00:33:11.348Z,2.31
2019-02-16T00:34:11.325Z,2.25
2019-02-16T00:35:11.314Z,2.27
2019-02-16T00:36:11.274Z,2.27
2019-02-16T00:37:11.250Z,2.27
2019-02-16T00:38:11.227Z,2.18
2019-02-16T00:39:11.199Z,2.21
2019-02-16T00:40:11.187Z,2.17
2019-02-16T00:41:11.151Z,2.17
2019-02-16T00:42:11.130Z,2.18
2019-02-16T00:43:11.107Z,2.30
2019-02-16T00:44:11.081Z,2.27
2019-02-16T00:45:11.063Z,2.24
2019-02-16T00:46:11.029Z,2.28
2019-02-16T00:47:11.011Z,2.20
2019-02-16T00:48:10.983Z,2.21
2019-02-16T00:49:10.960Z,2.21
2019-02-16T00:50:10.935Z,2.21
2019-02-16T00:51:13.595Z,2.25
2019-02-16T00:52:10.887Z,2.28
2019-02-16T00:53:10.862Z,2.18
2019-02-16T00:54:10.835Z,2.12
2019-02-16T00:55:10.813Z,2.17
2019-02-16T00:56:10.789Z,2.07
2019-02-16T00:57:10.761Z,2.09
2019-02-16T00:58:10.746Z,2.20
2019-02-16T00:59:10.715Z,2.18
2019-02-16T01:00:10.688Z,2.21
2019-02-16T01:01:10.666Z,2.09
2019-02-16T01:02:10.639Z,2.10
2019-02-16T01:03:10.619Z,2.20
2019-02-16T01:04:10.592Z,2.14
2019-02-16T01:05:10.568Z,2.24
2019-02-16T01:06:10.551Z,2.21
2019-02-16T01:07:10.519Z,2.18
2019-02-16T01:08:10.498Z,2.17
2019-02-16T01:09:10.475Z,2.17
2019-02-16T01:10:10.447Z,2.23
2019-02-16T01:11:10.424Z,2.18
2019-02-16T01:12:10.401Z,2.10
2019-02-16T01:13:10.372Z,2.21
2019-02-16T01:14:10.347Z,2.07
2019-02-16T01:15:10.319Z,2.09
2019-02-16T01:16:10.297Z,2.07
2019-02-16T01:17:10.276Z,2.10
2019-02-16T01:18:10.251Z,2.06
2019-02-16T01:19:10.224Z,2.06
2019-02-16T01:20:10.201Z,2.18
2019-02-16T01:21:10.173Z,2.10
2019-02-16T01:22:10.152Z,2.21
2019-02-16T01:23:10.128Z,2.21
2019-02-16T01:24:10.104Z,2.07
2019-02-16T01:25:10.078Z,2.14
2019-02-16T01:26:10.058Z,2.12
2019-02-16T01:27:10.027Z,2.06
2019-02-16T01:28:10.003Z,1.99
2019-02-16T01:29:09.984Z,1.99
2019-02-16T01:30:09.958Z,2.00
2019-02-16T01:31:09.930Z,2.02
2019-02-16T01:32:09.900Z,1.99
2019-02-16T01:33:09.883Z,2.03
2019-02-16T01:34:09.856Z,1.93
2019-02-16T01:35:09.832Z,2.02
2019-02-16T01:36:09.808Z,2.03
2019-02-16T01:37:09.784Z,2.00
2019-02-16T01:38:09.756Z,1.98
2019-02-16T01:39:09.735Z,2.00
2019-02-16T01:40:09.709Z,1.88
2019-02-16T01:41:09.684Z,1.98
2019-02-16T01:42:09.666Z,1.83
2019-02-16T01:43:09.640Z,1.90
2019-02-16T01:44:09.612Z,1.88
2019-02-16T01:45:09.646Z,1.80
2019-02-16T01:46:09.565Z,1.86
2019-02-16T01:47:09.538Z,1.81
2019-02-16T01:48:09.516Z,1.77
2019-02-16T01:49:09.495Z,1.84
2019-02-16T01:50:09.464Z,1.83
2019-02-16T01:51:09.441Z,1.73
2019-02-16T01:52:09.418Z,1.76
2019-02-16T01:53:09.388Z,1.70
2019-02-16T01:54:09.364Z,1.70
2019-02-16T01:55:09.341Z,1.68
2019-02-16T01:56:09.313Z,1.72
2019-02-16T01:57:09.295Z,1.72
2019-02-16T01:58:09.264Z,1.65
2019-02-16T01:59:09.249Z,1.65
2019-02-16T02:00:09.220Z,1.65
2019-02-16T02:01:09.197Z,1.65
2019-02-16T02:02:09.166Z,1.63
2019-02-16T02:03:09.148Z,1.70
2019-02-16T02:04:09.116Z,1.68
2019-02-16T02:05:09.098Z,1.69
2019-02-16T02:06:09.075Z,1.69
2019-02-16T02:07:09.047Z,1.65
2019-02-16T02:08:09.023Z,1.62
2019-02-16T02:09:08.998Z,1.70
2019-02-16T02:10:08.974Z,1.58
2019-02-16T02:11:08.947Z,1.69
2019-02-16T02:12:08.925Z,1.52
2019-02-16T02:13:08.898Z,1.62
2019-02-16T02:14:08.880Z,1.69
2019-02-16T02:15:08.854Z,1.58
2019-02-16T02:16:08.824Z,1.62
2019-02-16T02:17:08.798Z,1.65
2019-02-16T02:18:08.774Z,1.69
2019-02-16T02:19:08.752Z,1.55
2019-02-16T02:20:08.725Z,1.52
2019-02-16T02:21:08.701Z,1.50
2019-02-16T02:22:08.674Z,1.60
2019-02-16T02:23:08.652Z,1.58
2019-02-16T02:24:08.630Z,1.63
2019-02-16T02:25:08.600Z,1.58
2019-02-16T02:26:08.588Z,1.65
2019-02-16T02:27:08.552Z,1.65
2019-02-16T02:28:08.525Z,1.52
2019-02-16T02:29:08.504Z,1.66
2019-02-16T02:30:08.483Z,1.51
2019-02-16T02:31:08.460Z,1.69
2019-02-16T02:32:08.431Z,1.77
2019-02-16T02:33:08.405Z,1.63
2019-02-16T02:34:08.397Z,1.51
2019-02-16T02:35:08.358Z,1.47
2019-02-16T02:36:08.331Z,1.52
2019-02-16T02:37:08.307Z,1.50
2019-02-16T02:38:08.284Z,1.52
2019-02-16T02:39:08.258Z,1.52
2019-02-16T02:40:08.234Z,1.54
2019-02-16T02:41:08.206Z,1.47
2019-02-16T02:42:08.185Z,1.60
2019-02-16T02:43:08.163Z,1.58
2019-02-16T02:44:08.135Z,1.59
2019-02-16T02:45:08.108Z,1.45
2019-02-16T02:46:08.093Z,1.48
2019-02-16T02:47:08.061Z,1.44
2019-02-16T02:48:08.035Z,1.47
2019-02-16T02:49:08.011Z,1.34
2019-02-16T02:50:07.985Z,1.34
2019-02-16T02:51:07.967Z,1.42
2019-02-16T02:52:07.944Z,1.37
2019-02-16T02:53:07.907Z,1.33
2019-02-16T02:54:07.885Z,1.40
2019-02-16T02:55:07.870Z,1.33
2019-02-16T02:56:07.835Z,1.48
2019-02-16T02:57:07.815Z,1.41
2019-02-16T02:58:07.794Z,1.47
2019-02-16T02:59:07.769Z,1.36
2019-02-16T03:00:07.737Z,1.51
2019-02-16T03:01:07.712Z,1.50
2019-02-16T03:02:07.685Z,1.45
2019-02-16T03:03:07.670Z,1.50
2019-02-16T03:04:07.637Z,1.50
2019-02-16T03:05:07.613Z,1.41
2019-02-16T03:06:07.591Z,1.52
2019-02-16T03:07:07.571Z,1.44
2019-02-16T03:08:07.559Z,1.51
2019-02-16T03:09:07.520Z,1.44
2019-02-16T03:10:07.492Z,1.47
2019-02-16T03:11:07.469Z,1.48
2019-02-16T03:12:07.445Z,1.52
2019-02-16T03:13:07.425Z,1.48
2019-02-16T03:14:07.389Z,1.45
2019-02-16T03:15:07.371Z,1.58
2019-02-16T03:16:07.342Z,1.47
2019-02-16T03:17:07.315Z,1.45
2019-02-16T03:18:07.293Z,1.50
2019-02-16T03:19:07.269Z,1.60
2019-02-16T03:20:07.244Z,1.59
2019-02-16T03:21:07.220Z,1.59
2019-02-16T03:22:07.197Z,1.58
2019-02-16T03:23:07.174Z,1.54
2019-02-16T03:24:07.147Z,1.47
2019-02-16T03:25:07.122Z,1.45
2019-02-16T03:26:07.096Z,1.36
2019-02-16T03:27:07.075Z,1.41
2019-02-16T03:28:07.047Z,1.40
2019-02-16T03:29:07.025Z,1.33
2019-02-16T03:30:06.994Z,1.33
2019-02-16T03:31:06.976Z,1.41
2019-02-16T03:32:06.958Z,1.34
2019-02-16T03:33:06.949Z,1.42
2019-02-16T03:34:06.898Z,1.47
2019-02-16T03:35:06.886Z,1.36
2019-02-16T03:36:06.849Z,1.47
2019-02-16T03:37:06.826Z,1.42
2019-02-16T03:38:06.800Z,1.41
2019-02-16T03:39:06.771Z,1.32
2019-02-16T03:40:06.746Z,1.48
2019-02-16T03:41:06.728Z,1.36
2019-02-16T03:42:06.700Z,1.37
2019-02-16T03:43:06.677Z,1.33
2019-02-16T03:44:06.652Z,1.40
2019-02-16T03:45:06.635Z,1.33
2019-02-16T03:46:06.649Z,1.29
2019-02-16T03:47:06.578Z,1.23
2019-02-16T03:48:06.555Z,1.22
2019-02-16T03:49:06.525Z,1.11
2019-02-16T03:50:06.503Z,1.14
2019-02-16T03:51:06.478Z,1.14
2019-02-16T03:52:13.737Z,1.16
2019-02-16T03:53:06.428Z,1.16
2019-02-16T03:54:06.406Z,1.22
2019-02-16T03:55:06.371Z,1.16
2019-02-16T03:56:06.344Z,1.12
2019-02-16T03:57:06.325Z,0.98
2019-02-16T03:58:06.307Z,1.02
2019-02-16T03:59:06.277Z,0.98
2019-02-16T04:00:06.252Z,1.11
2019-02-16T04:01:06.231Z,1.08
2019-02-16T04:02:06.202Z,1.04
2019-02-16T04:03:06.191Z,1.12
2019-02-16T04:04:06.158Z,1.00
2019-02-16T04:05:06.132Z,0.97
2019-02-16T04:06:06.105Z,1.15
2019-02-16T04:07:06.078Z,1.02
2019-02-16T04:08:06.054Z,1.09
2019-02-16T04:09:06.034Z,1.20
2019-02-16T04:10:06.011Z,1.20
2019-02-16T04:11:05.982Z,1.12
2019-02-16T04:12:05.964Z,1.20
2019-02-16T04:13:05.934Z,1.12
2019-02-16T04:14:05.907Z,1.15
2019-02-16T04:15:05.881Z,1.23
2019-02-16T04:16:05.858Z,1.12
2019-02-16T04:17:05.833Z,1.22
2019-02-16T04:18:05.802Z,1.18
2019-02-16T04:19:05.785Z,1.11
2019-02-16T04:20:05.755Z,1.12
2019-02-16T04:21:05.734Z,1.12
2019-02-16T04:22:05.706Z,1.15
2019-02-16T04:23:05.686Z,1.20
2019-02-16T04:24:05.657Z,1.16
2019-02-16T04:25:05.632Z,1.29
2019-02-16T04:26:05.607Z,1.27
2019-02-16T04:27:05.583Z,1.22
2019-02-16T04:28:05.564Z,1.23
2019-02-16T04:29:05.534Z,1.24
2019-02-16T04:30:05.507Z,1.23
2019-02-16T04:31:05.485Z,1.15
2019-02-16T04:32:05.461Z,1.06
2019-02-16T04:33:05.435Z,1.14
2019-02-16T04:34:05.415Z,1.05
2019-02-16T04:35:05.385Z,1.02
2019-02-16T04:36:05.358Z,1.02
2019-02-16T04:37:05.332Z,0.98
2019-02-16T04:38:05.314Z,1.06
2019-02-16T04:39:05.283Z,0.91
2019-02-16T04:40:05.257Z,0.94
2019-02-16T04:41:05.234Z,0.98
2019-02-16T04:42:05.207Z,0.97
2019-02-16T04:43:05.190Z,1.12
2019-02-16T04:44:05.160Z,1.02
2019-02-16T04:45:05.141Z,1.04
2019-02-16T04:46:05.117Z,1.00
2019-02-16T04:47:05.086Z,1.04
2019-02-16T04:48:05.162Z,0.97
2019-02-16T04:49:05.034Z,0.96
2019-02-16T04:50:05.014Z,0.97
2019-02-16T04:51:04.985Z,0.91
2019-02-16T04:52:04.963Z,0.86
2019-02-16T04:53:04.935Z,0.86
2019-02-16T04:54:04.912Z,0.84
2019-02-16T04:55:04.908Z,0.86
2019-02-16T04:56:04.861Z,0.84
2019-02-16T04:57:04.834Z,0.88
2019-02-16T04:58:04.813Z,0.87
2019-02-16T04:59:04.785Z,0.94
2019-02-16T05:00:04.761Z,0.78
2019-02-16T05:01:04.738Z,0.79
2019-02-16T05:02:04.721Z,0.87
2019-02-16T05:03:04.694Z,0.86
2019-02-16T05:04:04.660Z,0.83
2019-02-16T05:05:04.644Z,0.86
2019-02-16T05:06:04.616Z,0.83
2019-02-16T05:07:04.587Z,0.84
2019-02-16T05:08:04.563Z,0.80
2019-02-16T05:09:04.547Z,0.88
2019-02-16T05:10:04.511Z,0.91
2019-02-16T05:11:04.509Z,0.79
2019-02-16T05:12:04.466Z,0.94
2019-02-16T05:13:04.440Z,0.80
2019-02-16T05:14:04.414Z,0.80
2019-02-16T05:15:04.386Z,0.80
2019-02-16T05:16:04.362Z,0.87
2019-02-16T05:17:04.336Z,0.83
2019-02-16T05:18:04.312Z,0.96
2019-02-16T05:19:04.284Z,0.91
2019-02-16T05:20:04.266Z,0.86
2019-02-16T05:21:04.243Z,0.83
2019-02-16T05:22:04.212Z,0.84
2019-02-16T05:23:04.187Z,0.88
2019-02-16T05:24:04.158Z,0.83
2019-02-16T05:25:04.138Z,0.93
2019-02-16T05:26:04.115Z,0.87
2019-02-16T05:27:04.089Z,0.88
2019-02-16T05:28:04.064Z,0.93
2019-02-16T05:29:04.045Z,0.87
2019-02-16T05:30:04.014Z,0.78
2019-02-16T05:31:04.094Z,0.86
2019-02-16T05:32:03.963Z,0.86
2019-02-16T05:33:03.934Z,0.90
2019-02-16T05:34:03.913Z,0.79
2019-02-16T05:35:03.886Z,0.78
2019-02-16T05:36:03.860Z,0.78
2019-02-16T05:37:03.837Z,0.83
2019-02-16T05:38:03.811Z,0.84
2019-02-16T05:39:03.811Z,0.78
2019-02-16T05:40:03.770Z,0.84
2019-02-16T05:41:03.742Z,0.79
2019-02-16T05:42:03.713Z,0.75
2019-02-16T05:43:03.689Z,0.78
2019-02-16T05:44:03.670Z,0.70
2019-02-16T05:45:03.635Z,0.73
2019-02-16T05:46:03.614Z,0.79
2019-02-16T05:47:03.589Z,0.90
2019-02-16T05:48:03.570Z,0.75
2019-02-16T05:49:03.533Z,0.73
2019-02-16T05:50:03.511Z,0.76
2019-02-16T05:51:03.486Z,0.87
2019-02-16T05:52:03.465Z,0.79
2019-02-16T05:53:03.437Z,0.70
2019-02-16T05:54:03.415Z,0.79
2019-02-16T05:55:03.389Z,0.75
2019-02-16T05:56:03.367Z,0.80
2019-02-16T05:57:03.335Z,0.80
2019-02-16T05:58:03.312Z,0.79
2019-02-16T05:59:03.289Z,0.79
2019-02-16T06:00:03.265Z,0.79
2019-02-16T06:01:03.252Z,0.72
2019-02-16T06:02:03.212Z,0.75
2019-02-16T06:03:03.191Z,0.84
2019-02-16T06:04:03.162Z,0.79
2019-02-16T06:05:03.142Z,0.75
2019-02-16T06:06:03.119Z,0.80
2019-02-16T06:07:03.109Z,0.86
2019-02-16T06:08:03.062Z,0.84
2019-02-16T06:09:03.037Z,0.78
2019-02-16T06:10:03.013Z,0.76
2019-02-16T06:11:03.298Z,0.80
2019-02-16T06:12:02.969Z,0.76
2019-02-16T06:13:02.947Z,0.83
2019-02-16T06:14:02.911Z,0.78
2019-02-16T06:15:02.886Z,0.78
2019-02-16T06:16:02.869Z,0.87
2019-02-16T06:17:02.837Z,0.79
2019-02-16T06:18:02.814Z,0.78
2019-02-16T06:19:02.790Z,0.93
2019-02-16T06:20:02.766Z,0.88
2019-02-16T06:21:02.737Z,0.79
2019-02-16T06:22:02.716Z,0.96
2019-02-16T06:23:04.611Z,0.78
2019-02-16T06:24:02.663Z,0.91
2019-02-16T06:25:02.640Z,0.87
2019-02-16T06:26:02.618Z,0.80
2019-02-16T06:27:02.591Z,0.87
2019-02-16T06:28:02.560Z,0.86
2019-02-16T06:29:02.538Z,0.90
2019-02-16T06:30:02.521Z,0.96
2019-02-16T06:31:02.487Z,0.97
2019-02-16T06:32:02.465Z,1.02
2019-02-16T06:33:02.445Z,0.94
2019-02-16T06:34:02.416Z,0.93
2019-02-16T06:35:02.386Z,0.94
2019-02-16T06:36:02.360Z,0.93
2019-02-16T06:37:02.351Z,0.79
2019-02-16T06:38:02.313Z,0.80
2019-02-16T06:39:02.290Z,0.86
2019-02-16T06:40:02.262Z,0.91
2019-02-16T06:41:02.239Z,0.93
2019-02-16T06:42:02.216Z,0.91
2019-02-16T06:43:02.193Z,0.91
2019-02-16T06:44:02.160Z,0.93
2019-02-16T06:45:02.137Z,0.91
2019-02-16T06:46:02.114Z,0.79
2019-02-16T06:47:02.090Z,0.88
2019-02-16T06:48:02.064Z,0.93
2019-02-16T06:49:02.040Z,1.00
2019-02-16T06:50:02.026Z,1.11
2019-02-16T06:51:01.994Z,1.00
2019-02-16T06:52:01.960Z,1.04
2019-02-16T06:53:01.940Z,0.91
2019-02-16T06:54:01.912Z,1.02
2019-02-16T06:55:01.886Z,1.00
2019-02-16T06:56:01.866Z,0.88
2019-02-16T06:57:01.838Z,1.00
2019-02-16T06:58:01.823Z,1.00
2019-02-16T06:59:01.788Z,1.04
2019-02-16T07:00:01.764Z,1.05
2019-02-16T07:01:01.751Z,1.04
2019-02-16T07:02:01.713Z,1.12
2019-02-16T07:03:01.692Z,1.14
2019-02-16T07:04:01.663Z,1.14
2019-02-16T07:05:01.638Z,1.15
2019-02-16T07:06:01.621Z,1.16
2019-02-16T07:07:01.589Z,1.34
2019-02-16T07:08:01.565Z,1.27
2019-02-16T07:09:01.545Z,1.24
2019-02-16T07:10:01.514Z,1.30
2019-02-16T07:11:01.489Z,1.33
2019-02-16T07:12:01.461Z,1.34
2019-02-16T07:13:01.442Z,1.36
2019-02-16T07:14:01.414Z,1.30
2019-02-16T07:15:01.390Z,1.44
2019-02-16T07:16:01.363Z,1.36
2019-02-16T07:17:01.337Z,1.50
2019-02-16T07:18:01.318Z,1.44
2019-02-16T07:19:01.295Z,1.50
2019-02-16T07:20:01.271Z,1.59
2019-02-16T07:21:01.245Z,1.51
2019-02-16T07:22:01.219Z,1.63
2019-02-16T07:23:01.196Z,1.72
2019-02-16T07:24:01.171Z,1.72
2019-02-16T07:25:01.141Z,1.69
2019-02-16T07:26:01.130Z,1.84
2019-02-16T07:27:01.090Z,1.88
2019-02-16T07:28:01.067Z,1.86
2019-02-16T07:29:01.050Z,1.91
2019-02-16T07:30:01.018Z,1.93
2019-02-16T07:31:00.995Z,1.86
2019-02-16T07:32:00.964Z,2.00
2019-02-16T07:33:00.950Z,1.91
2019-02-16T07:34:00.922Z,2.05
2019-02-16T07:35:00.892Z,2.03
2019-02-16T07:36:00.864Z,2.02
2019-02-16T07:37:00.846Z,1.95
2019-02-16T07:38:00.826Z,2.10
2019-02-16T07:39:00.801Z,2.05
2019-02-16T07:40:00.813Z,2.24
2019-02-16T07:41:00.741Z,2.30
2019-02-16T07:42:00.723Z,2.25
2019-02-16T07:43:00.693Z,2.28
2019-02-16T07:44:00.676Z,2.35
2019-02-16T07:45:00.648Z,2.45
2019-02-16T07:46:00.630Z,2.48
2019-02-16T07:47:00.604Z,2.56
2019-02-16T07:48:00.575Z,2.61
2019-02-16T07:49:00.551Z,2.61
2019-02-16T07:50:00.537Z,2.81
2019-02-16T07:51:00.506Z,2.85
2019-02-16T07:52:00.488Z,3.02
2019-02-16T07:53:00.455Z,3.20
2019-02-16T07:54:00.425Z,3.29
2019-02-16T07:55:00.409Z,3.45
2019-02-16T07:56:00.379Z,3.78
2019-02-16T07:57:00.354Z,3.91
2019-02-16T07:58:00.332Z,4.05
2019-02-16T07:59:00.308Z,4.32
2019-02-16T08:00:00.430Z,4.60
2019-02-16T08:01:00.255Z,4.92
2019-02-16T08:02:00.235Z,5.15
2019-02-16T08:03:00.212Z,5.60
2019-02-16T08:04:00.186Z,6.04
2019-02-16T08:05:00.344Z,6.56
2019-02-16T08:06:00.139Z,6.89
2019-02-16T08:07:00.115Z,7.28
2019-02-16T08:08:00.091Z,7.49
2019-02-16T08:09:00.069Z,7.69
2019-02-16T08:10:00.100Z,8.10
2019-02-16T08:11:00.022Z,8.28
2019-02-16T08:11:59.999Z,8.55
2019-02-16T08:12:59.979Z,9.05
2019-02-16T08:13:59.961Z,9.36
2019-02-16T08:14:59.924Z,9.72
2019-02-16T08:15:59.909Z,9.83
2019-02-16T08:16:59.882Z,9.96
2019-02-16T08:17:59.864Z,10.04
2019-02-16T08:18:59.853Z,10.22
2019-02-16T08:19:59.808Z,10.56
2019-02-16T08:20:59.791Z,10.86
2019-02-16T08:21:59.763Z,11.40
2019-02-16T08:22:59.738Z,11.94
2019-02-16T08:23:59.775Z,12.32
2019-02-16T08:24:59.699Z,12.27
2019-02-16T08:25:59.676Z,12.67
2019-02-16T08:26:59.651Z,12.82
2019-02-16T08:27:59.635Z,12.83
2019-02-16T08:28:59.604Z,13.17
2019-02-16T08:29:59.586Z,13.41
2019-02-16T08:30:59.573Z,13.30
2019-02-16T08:31:59.542Z,13.19
2019-02-16T08:32:59.518Z,13.32
2019-02-16T08:33:59.504Z,13.55
2019-02-16T08:34:59.483Z,13.39
2019-02-16T08:35:59.451Z,13.45
2019-02-16T08:36:59.432Z,13.63
2019-02-16T08:37:59.412Z,13.52
2019-02-16T08:38:59.392Z,13.39
2019-02-16T08:39:59.363Z,13.48
2019-02-16T08:40:59.346Z,13.60
2019-02-16T08:41:59.320Z,13.55
2019-02-16T08:42:59.304Z,13.28
2019-02-16T08:43:59.274Z,13.19
2019-02-16T08:44:59.266Z,13.19
2019-02-16T08:45:59.235Z,13.15
2019-02-16T08:46:59.217Z,13.12
2019-02-16T08:47:59.197Z,13.14
2019-02-16T08:48:59.168Z,13.04
2019-02-16T08:49:59.146Z,12.79
2019-02-16T08:50:59.126Z,12.74
2019-02-16T08:51:59.104Z,12.78
2019-02-16T08:52:59.084Z,12.83
2019-02-16T08:53:59.072Z,12.70
2019-02-16T08:54:59.042Z,12.46
2019-02-16T08:55:59.018Z,12.34
2019-02-16T08:56:58.997Z,12.29
2019-02-16T08:57:58.982Z,12.37
2019-02-16T08:58:58.956Z,12.17
2019-02-16T08:59:58.937Z,12.31
2019-02-16T09:00:58.914Z,12.17
2019-02-16T09:01:58.896Z,12.28
2019-02-16T09:02:58.869Z,12.28
2019-02-16T09:03:58.847Z,12.28
2019-02-16T09:04:58.824Z,12.39
2019-02-16T09:05:58.807Z,12.17
2019-02-16T09:06:58.790Z,11.94
2019-02-16T09:07:58.767Z,11.47
2019-02-16T09:08:58.749Z,11.35
2019-02-16T09:09:58.729Z,11.18
2019-02-16T09:10:58.700Z,11.19
2019-02-16T09:11:58.675Z,11.10
2019-02-16T09:12:58.658Z,11.11
2019-02-16T09:13:58.637Z,11.04
2019-02-16T09:14:58.622Z,10.99
2019-02-16T09:15:58.592Z,10.88
2019-02-16T09:16:58.572Z,10.81
2019-02-16T09:17:58.552Z,10.70
2019-02-16T09:18:58.528Z,10.56
2019-02-16T09:19:58.508Z,10.55
2019-02-16T09:20:58.492Z,10.64
2019-02-16T09:21:58.468Z,10.67
2019-02-16T09:22:58.447Z,10.73
2019-02-16T09:23:59.353Z,10.85
2019-02-16T09:24:58.404Z,10.94
2019-02-16T09:25:58.382Z,10.88
2019-02-16T09:26:58.363Z,10.89
2019-02-16T09:27:58.336Z,10.84
2019-02-16T09:28:58.318Z,10.91
2019-02-16T09:29:58.300Z,11.07
2019-02-16T09:30:58.282Z,11.24
2019-02-16T09:31:58.263Z,11.39
2019-02-16T09:32:58.234Z,11.24
2019-02-16T09:33:58.219Z,11.35
2019-02-16T09:34:58.196Z,11.46
2019-02-16T09:35:58.170Z,11.58
2019-02-16T09:36:58.153Z,11.73
2019-02-16T09:37:58.137Z,11.73
2019-02-16T09:38:58.110Z,11.88
2019-02-16T09:39:58.093Z,12.01
2019-02-16T09:40:58.068Z,12.16
2019-02-16T09:41:58.050Z,12.32
2019-02-16T09:42:58.027Z,12.41
2019-02-16T09:43:58.012Z,12.49
2019-02-16T09:44:57.988Z,12.50
2019-02-16T09:45:57.969Z,12.65
2019-02-16T09:46:57.947Z,12.70
2019-02-16T09:47:57.929Z,12.79
2019-02-16T09:48:57.910Z,12.82
2019-02-16T09:49:57.888Z,12.93
2019-02-16T09:50:57.868Z,13.00
2019-02-16T09:51:57.857Z,13.00
2019-02-16T09:52:57.829Z,13.01
2019-02-16T09:53:57.821Z,12.92
2019-02-16T09:54:57.793Z,13.17
2019-02-16T09:55:57.777Z,13.15
2019-02-16T09:56:57.752Z,13.19
2019-02-16T09:57:57.737Z,13.45
2019-02-16T09:58:57.713Z,13.45
2019-02-16T09:59:57.691Z,13.46
2019-02-16T10:00:57.677Z,13.41
2019-02-16T10:01:57.655Z,13.42
2019-02-16T10:02:57.641Z,13.55
2019-02-16T10:03:57.620Z,13.73
2019-02-16T10:04:57.600Z,13.84
2019-02-16T10:05:57.587Z,13.78
2019-02-16T10:06:57.567Z,13.81
2019-02-16T10:07:57.541Z,14.00
2019-02-16T10:08:57.526Z,14.10
2019-02-16T10:09:57.505Z,14.10
2019-02-16T10:10:57.491Z,14.21
2019-02-16T10:11:57.477Z,14.18
2019-02-16T10:12:57.454Z,14.17
2019-02-16T10:13:57.433Z,14.21
2019-02-16T10:14:57.427Z,14.24
2019-02-16T10:15:57.403Z,14.54
2019-02-16T10:16:57.385Z,14.62
2019-02-16T10:17:57.364Z,14.75
2019-02-16T10:18:57.348Z,14.64
2019-02-16T10:19:57.334Z,14.62
2019-02-16T10:20:57.315Z,14.64
2019-02-16T10:21:57.301Z,14.61
2019-02-16T10:22:57.281Z,14.92
2019-02-16T10:23:57.264Z,15.17
2019-02-16T10:24:57.247Z,15.46
2019-02-16T10:25:57.239Z,15.64
2019-02-16T10:26:57.216Z,16.14
2019-02-16T10:27:57.207Z,16.41
2019-02-16T10:28:57.187Z,16.43
2019-02-16T10:29:57.171Z,16.61
2019-02-16T10:30:57.152Z,17.08
2019-02-16T10:31:57.139Z,17.49
2019-02-16T10:32:57.121Z,17.92
2019-02-16T10:33:57.113Z,18.23
2019-02-16T10:34:57.089Z,18.75
2019-02-16T10:35:57.073Z,18.98
2019-02-16T10:36:57.061Z,19.28
2019-02-16T10:37:57.046Z,19.21
2019-02-16T10:38:57.027Z,19.13
2019-02-16T10:39:57.014Z,18.65
2019-02-16T10:40:56.994Z,18.66
2019-02-16T10:41:56.979Z,18.82
2019-02-16T10:42:56.965Z,19.13
2019-02-16T10:43:56.964Z,19.37
2019-02-16T10:44:56.940Z,19.37
2019-02-16T10:45:56.922Z,18.94
2019-02-16T10:46:56.908Z,18.58
2019-02-16T10:47:56.888Z,18.32
2019-02-16T10:48:56.877Z,18.35
2019-02-16T10:49:56.858Z,18.25
2019-02-16T10:50:56.860Z,17.97
2019-02-16T10:51:57.093Z,17.96
2019-02-16T10:52:56.815Z,17.68
2019-02-16T10:53:56.802Z,17.75
2019-02-16T10:54:56.782Z,17.62
2019-02-16T10:55:56.771Z,17.59
2019-02-16T10:56:56.755Z,17.68
2019-02-16T10:57:56.745Z,17.64
2019-02-16T10:58:56.725Z,17.77
2019-02-16T10:59:56.711Z,17.79
2019-02-16T11:00:56.700Z,17.40
2019-02-16T11:01:56.683Z,17.23
2019-02-16T11:02:56.665Z,17.12
2019-02-16T11:03:56.648Z,17.00
2019-02-16T11:04:56.945Z,16.83
2019-02-16T11:05:56.616Z,16.93
2019-02-16T11:06:56.608Z,17.00
2019-02-16T11:07:56.586Z,17.03
2019-02-16T11:08:56.574Z,17.00
2019-02-16T11:09:56.564Z,16.83
2019-02-16T11:10:56.548Z,16.83
2019-02-16T11:11:56.531Z,16.78
2019-02-16T11:12:56.513Z,16.96
2019-02-16T11:13:56.497Z,16.98
2019-02-16T11:14:56.485Z,17.19
2019-02-16T11:15:56.468Z,17.31
2019-02-16T11:16:56.453Z,17.11
2019-02-16T11:17:56.440Z,17.33
2019-02-16T11:18:56.436Z,17.30
2019-02-16T11:19:56.409Z,17.12
2019-02-16T11:20:56.400Z,17.18
2019-02-16T11:21:56.381Z,17.06
2019-02-16T11:22:56.363Z,16.86
2019-02-16T11:23:56.349Z,16.97
2019-02-16T11:24:56.336Z,16.91
2019-02-16T11:25:56.316Z,17.19
2019-02-16T11:26:56.308Z,17.16
2019-02-16T11:27:56.296Z,17.33
2019-02-16T11:28:56.286Z,17.43
2019-02-16T11:29:56.260Z,17.18
2019-02-16T11:30:56.246Z,17.36
2019-02-16T11:31:56.228Z,17.41
2019-02-16T11:32:56.212Z,17.40
2019-02-16T11:33:56.196Z,17.36
2019-02-16T11:34:56.186Z,17.30
2019-02-16T11:35:56.170Z,17.49
2019-02-16T11:36:56.167Z,17.38
2019-02-16T11:37:56.146Z,17.56
2019-02-16T11:38:56.128Z,17.56
2019-02-16T11:39:56.112Z,17.62
2019-02-16T11:40:56.114Z,17.63
2019-02-16T11:41:56.082Z,17.66
2019-02-16T11:42:56.062Z,17.74
2019-02-16T11:43:56.059Z,17.62
2019-02-16T11:44:56.038Z,17.78
2019-02-16T11:45:56.026Z,17.59
2019-02-16T11:46:56.004Z,17.68
2019-02-16T11:47:55.994Z,17.81
2019-02-16T11:48:55.982Z,17.89
2019-02-16T11:49:55.966Z,17.90
2019-02-16T11:50:55.972Z,17.78
2019-02-16T11:51:55.987Z,17.54
2019-02-16T11:52:55.922Z,17.78
2019-02-16T11:53:55.904Z,17.84
2019-02-16T11:54:55.888Z,18.00
2019-02-16T11:55:55.874Z,18.07
2019-02-16T11:56:55.863Z,18.07
2019-02-16T11:57:55.852Z,17.89
2019-02-16T11:58:55.833Z,17.56
2019-02-16T11:59:55.818Z,17.79
2019-02-16T12:00:55.800Z,17.92
2019-02-16T12:01:55.792Z,17.96
2019-02-16T12:02:55.778Z,18.07
2019-02-16T12:03:55.760Z,17.96
2019-02-16T12:04:55.744Z,17.89
2019-02-16T12:05:55.742Z,17.79
2019-02-16T12:06:55.716Z,17.96
2019-02-16T12:07:55.702Z,17.86
2019-02-16T12:08:55.690Z,17.86
2019-02-16T12:09:55.675Z,17.89
2019-02-16T12:10:55.663Z,17.99
2019-02-16T12:11:55.644Z,17.99
2019-02-16T12:12:55.630Z,17.97
2019-02-16T12:13:55.615Z,17.75
2019-02-16T12:14:55.604Z,17.77
2019-02-16T12:15:55.590Z,17.92
2019-02-16T12:16:55.574Z,17.93
2019-02-16T12:17:55.562Z,17.93
2019-02-16T12:18:55.542Z,18.03
2019-02-16T12:19:55.526Z,17.89
2019-02-16T12:20:55.511Z,17.95
2019-02-16T12:21:55.503Z,17.86
2019-02-16T12:22:55.484Z,17.89
2019-02-16T12:23:55.471Z,17.87
2019-02-16T12:25:05.005Z,17.86
2019-02-16T12:25:55.439Z,17.84
2019-02-16T12:26:55.430Z,17.86
2019-02-16T12:27:55.441Z,18.02
2019-02-16T12:28:55.398Z,17.93
2019-02-16T12:29:55.382Z,17.96
2019-02-16T12:30:55.374Z,17.97
2019-02-16T12:31:55.353Z,17.82
2019-02-16T12:32:55.340Z,17.87
2019-02-16T12:33:55.322Z,17.97
2019-02-16T12:34:55.308Z,18.00
2019-02-16T12:35:55.292Z,17.99
2019-02-16T12:36:55.277Z,17.97
2019-02-16T12:37:55.267Z,18.15
2019-02-16T12:39:04.327Z,18.12
2019-02-16T12:39:55.242Z,18.14
2019-02-16T12:40:55.221Z,18.30
2019-02-16T12:41:55.205Z,18.36
2019-02-16T12:42:55.190Z,18.05
2019-02-16T12:43:55.174Z,18.05
2019-02-16T12:44:55.163Z,18.05
2019-02-16T12:45:55.147Z,18.17
2019-02-16T12:46:55.128Z,18.00
2019-02-16T12:47:55.119Z,17.95
2019-02-16T12:48:55.096Z,17.95
2019-02-16T12:49:55.090Z,17.87
2019-02-16T12:50:55.069Z,17.82
2019-02-16T12:51:55.063Z,17.99
2019-02-16T12:52:55.041Z,18.03
2019-02-16T12:53:55.022Z,18.15
2019-02-16T12:54:55.010Z,18.15
2019-02-16T12:55:54.990Z,18.14
2019-02-16T12:56:54.986Z,18.12
2019-02-16T12:57:54.968Z,17.97
2019-02-16T12:58:54.947Z,18.03
2019-02-16T12:59:54.944Z,18.11
2019-02-16T13:00:54.921Z,18.11
2019-02-16T13:01:54.901Z,18.08
2019-02-16T13:02:54.890Z,17.92
2019-02-16T13:03:54.873Z,18.02
2019-02-16T13:04:54.855Z,18.03
2019-02-16T13:05:54.840Z,18.30
2019-02-16T13:06:54.831Z,18.32
2019-02-16T13:07:54.813Z,18.41